Time;durP1;ratioP1;P1;durP2;ratioP2;P2;SDS_P1;SDS_P2;PMS_P1;PMS_P2;Temp;Humidity;BMP_temperature;BMP_pressure;BME280_temperature;BME280_humidity;BME280_pressure;Samples;Min_cycle;Max_cycle;Signal;HPM_P1;HPM_P2
2022/10/17 00:02:24;;;;;;;6.93;3.30;;;;;;;12.28;96.40;102062.91;4951621;29;20611;-75
2022/10/17 00:04:50;;;;;;;5.33;3.47;;;;;;;12.35;96.24;102064.84;4965392;28;20257;-76
2022/10/17 00:07:15;;;;;;;7.03;3.50;;;;;;;12.35;96.00;102049.41;4952725;28;20234;-76
2022/10/17 00:09:42;;;;;;;7.73;3.53;;;;;;;12.33;96.26;102045.94;4950494;28;20701;-76
2022/10/17 00:12:08;;;;;;;6.97;3.63;;;;;;;12.33;96.22;102035.66;4954283;28;20686;-75
2022/10/17 00:14:33;;;;;;;7.17;3.60;;;;;;;12.33;95.92;102030.53;4945254;29;20189;-76
2022/10/17 00:16:59;;;;;;;5.57;3.60;;;;;;;12.30;96.36;102029.56;4949279;29;20748;-75
2022/10/17 00:19:24;;;;;;;5.17;3.90;;;;;;;12.30;95.93;102039.84;4948454;28;20243;-76
2022/10/17 00:21:49;;;;;;;8.13;3.93;;;;;;;12.29;96.16;102059.50;4952669;28;20228;-76
2022/10/17 00:24:15;;;;;;;4.60;4.20;;;;;;;12.31;96.62;102072.41;4953566;28;20201;-75
2022/10/17 00:26:40;;;;;;;4.40;4.00;;;;;;;12.32;96.21;102071.56;4953223;28;20276;-76
2022/10/17 00:29:06;;;;;;;4.70;4.03;;;;;;;12.35;96.31;102077.69;4952889;29;20204;-76
2022/10/17 00:31:31;;;;;;;4.33;3.87;;;;;;;12.36;96.12;102079.41;4952868;29;20247;-75
2022/10/17 00:33:57;;;;;;;4.33;4.03;;;;;;;12.34;96.62;102075.94;4950838;28;20201;-76
2022/10/17 00:36:26;;;;;;;5.60;4.07;;;;;;;12.38;96.38;102080.34;4944909;29;20200;-76
2022/10/17 00:38:57;;;;;;;5.50;3.43;;;;;;;12.41;96.04;102077.91;4950133;29;20189;-76
2022/10/17 00:41:28;;;;;;;5.03;4.07;;;;;;;12.45;96.56;102076.28;4948256;28;20208;-75
2022/10/17 00:44:14;;;;;;;9.10;4.80;;;;;;;12.48;96.25;102078.94;4946374;29;20193;-75
2022/10/17 00:46:39;;;;;;;6.20;4.97;;;;;;;12.51;96.62;102073.91;4965410;28;20264;-76
2022/10/17 00:49:10;;;;;;;6.70;5.30;;;;;;;12.54;96.63;102068.88;4968121;28;20197;-75
2022/10/17 00:51:52;;;;;;;9.67;6.00;;;;;;;12.57;95.84;102061.22;4953769;28;20282;-75
2022/10/17 00:54:21;;;;;;;10.23;5.33;;;;;;;12.58;95.71;102053.56;4950922;28;20273;-75
2022/10/17 00:56:48;;;;;;;5.73;5.07;;;;;;;12.60;95.96;102057.09;4949407;29;20185;-75
2022/10/17 00:59:16;;;;;;;9.40;5.70;;;;;;;12.61;95.90;102047.66;4952402;29;20300;-75
2022/10/17 01:01:50;;;;;;;6.23;5.10;;;;;;;12.62;95.72;102040.00;4964642;28;20181;-75
2022/10/17 01:04:17;;;;;;;6.60;5.40;;;;;;;12.64;95.31;102029.78;4951296;29;20618;-75
2022/10/17 01:06:43;;;;;;;7.07;5.00;;;;;;;12.65;95.21;102041.78;4949305;29;20560;-75
2022/10/17 01:09:09;;;;;;;5.67;5.00;;;;;;;12.66;95.54;102056.38;4951241;28;20200;-75
2022/10/17 01:11:46;;;;;;;9.57;5.63;;;;;;;12.67;95.52;102055.56;4950820;28;20209;-76
2022/10/17 01:14:21;;;;;;;6.53;4.60;;;;;;;12.69;95.41;102059.94;4951272;29;20227;-75
2022/10/17 01:17:00;;;;;;;5.07;4.47;;;;;;;12.70;95.60;102066.81;4941695;29;20205;-75
2022/10/17 01:19:33;;;;;;;5.13;4.73;;;;;;;12.73;95.65;102073.75;4966251;28;20197;-75
2022/10/17 01:22:03;;;;;;;7.00;4.90;;;;;;;12.75;95.58;102072.97;4949943;28;20204;-76
2022/10/17 01:24:46;;;;;;;5.23;4.73;;;;;;;12.77;95.24;102063.59;4953136;28;20251;-76
2022/10/17 01:27:24;;;;;;;6.37;4.50;;;;;;;12.77;95.15;102063.59;4961219;28;20220;-76
2022/10/17 01:30:27;;;;;;;5.13;4.20;;;;;;;12.78;95.37;102062.78;4966451;28;20224;-76
2022/10/17 01:33:09;;;;;;;7.93;4.77;;;;;;;12.78;95.52;102056.75;4949502;29;20189;-76
2022/10/17 01:35:45;;;;;;;6.33;4.80;;;;;;;12.80;95.54;102063.69;4933028;29;20214;-76
2022/10/17 01:38:26;;;;;;;6.70;4.30;;;;;;;12.80;96.18;102055.97;4950060;29;20267;-76
2022/10/17 01:41:00;;;;;;;6.83;4.37;;;;;;;12.79;95.72;102045.63;4949665;28;20220;-76
2022/10/17 01:43:39;;;;;;;6.40;4.63;;;;;;;12.81;96.20;102044.00;4950941;29;20272;-76
2022/10/17 01:46:22;;;;;;;6.77;4.70;;;;;;;12.83;96.11;102044.91;4962518;28;20216;-76
2022/10/17 01:48:47;;;;;;;4.90;4.50;;;;;;;12.82;96.07;102050.88;4947986;29;20212;-76
2022/10/17 01:51:22;;;;;;;4.70;4.30;;;;;;;12.85;96.23;102040.66;4948446;28;20292;-76
2022/10/17 01:53:57;;;;;;;4.83;3.87;;;;;;;12.88;95.71;102049.38;4967130;28;20283;-76
2022/10/17 01:56:27;;;;;;;4.00;3.47;;;;;;;12.90;95.50;102057.97;4952583;28;20188;-75
2022/10/17 01:58:59;;;;;;;4.50;3.80;;;;;;;12.91;95.60;102056.28;4951083;28;20192;-76
2022/10/17 02:01:31;;;;;;;4.30;3.90;;;;;;;12.93;95.98;102063.22;4950644;29;20217;-76
2022/10/17 02:04:00;;;;;;;5.00;4.20;;;;;;;12.95;95.29;102061.56;4941047;29;20193;-76
2022/10/17 02:06:26;;;;;;;5.97;3.90;;;;;;;12.98;95.68;102062.53;4949609;29;20292;-76
2022/10/17 02:08:51;;;;;;;5.47;3.83;;;;;;;13.01;95.91;102062.59;4935223;29;20293;-76
2022/10/17 02:11:22;;;;;;;4.30;3.90;;;;;;;13.01;95.94;102045.47;4962380;28;20205;-75
2022/10/17 02:13:56;;;;;;;7.07;3.93;;;;;;;13.03;96.30;102051.53;4950524;28;20189;-76
2022/10/17 02:16:58;;;;;;;5.50;4.20;;;;;;;13.04;95.71;102044.69;4946521;29;20240;-75
2022/10/17 02:19:50;;;;;;;4.67;3.87;;;;;;;13.06;96.09;102032.75;4946726;29;20188;-75
2022/10/17 02:22:22;;;;;;;4.93;4.07;;;;;;;13.07;96.28;102034.50;4931373;29;20229;-75
2022/10/17 02:24:53;;;;;;;5.47;4.03;;;;;;;13.08;95.89;102028.53;4941233;29;20207;-75
2022/10/17 02:27:49;;;;;;;6.93;3.40;;;;;;;13.09;96.28;102033.72;4949749;28;20219;-75
2022/10/17 02:30:32;;;;;;;4.70;3.60;;;;;;;13.11;96.01;102028.63;4950869;28;20247;-75
2022/10/17 02:33:04;;;;;;;4.97;3.13;;;;;;;13.13;95.71;102027.84;4951375;29;20203;-75
2022/10/17 02:35:34;;;;;;;4.80;3.80;;;;;;;13.13;96.37;102024.38;4949402;29;20213;-75
2022/10/17 02:38:02;;;;;;;4.47;3.47;;;;;;;13.13;96.04;102025.25;4938433;29;20205;-76
2022/10/17 02:40:30;;;;;;;5.57;3.43;;;;;;;13.13;96.17;102026.94;4940881;28;20213;-76
2022/10/17 02:42:58;;;;;;;4.00;3.23;;;;;;;13.17;96.01;102021.06;4950182;29;20197;-76
2022/10/17 02:45:27;;;;;;;3.83;2.93;;;;;;;13.21;96.33;102021.19;4951069;28;20271;-75
2022/10/17 02:48:02;;;;;;;4.60;3.17;;;;;;;13.23;95.96;102014.41;4950087;29;20197;-76
2022/10/17 02:50:59;;;;;;;4.53;2.83;;;;;;;13.25;95.58;102014.44;4942234;29;20205;-76
2022/10/17 02:54:08;;;;;;;4.63;2.80;;;;;;;13.26;95.40;102008.47;4946378;29;20545;-76
2022/10/17 02:56:45;;;;;;;4.20;3.10;;;;;;;13.25;95.05;102006.72;4941570;29;20193;-76
2022/10/17 02:59:14;;;;;;;7.53;3.47;;;;;;;13.25;94.86;102014.44;4950587;29;20203;-76
2022/10/17 03:01:40;;;;;;;4.20;2.60;;;;;;;13.23;94.86;102010.94;4950251;29;20196;-76
2022/10/17 03:04:08;;;;;;;5.63;3.33;;;;;;;13.22;94.87;102004.91;4946878;29;20193;-76
2022/10/17 03:06:34;;;;;;;4.07;2.83;;;;;;;13.21;95.58;101999.75;4950045;28;20937;-76
2022/10/17 03:08:59;;;;;;;3.77;2.77;;;;;;;13.21;95.11;102005.75;4966276;28;20213;-76
2022/10/17 03:11:25;;;;;;;6.60;2.97;;;;;;;13.21;95.30;101999.75;4944985;29;20303;-76
2022/10/17 03:13:50;;;;;;;4.47;2.50;;;;;;;13.21;94.52;102000.59;4951038;28;20304;-76
2022/10/17 03:16:16;;;;;;;4.43;2.67;;;;;;;13.21;94.53;101992.88;4950307;29;20189;-76
2022/10/17 03:18:42;;;;;;;6.07;2.97;;;;;;;13.20;94.23;101992.84;4949799;29;20192;-76
2022/10/17 03:21:07;;;;;;;5.17;2.97;;;;;;;13.14;94.80;101991.00;4950156;29;20251;-75
2022/10/17 03:23:32;;;;;;;3.97;2.30;;;;;;;13.15;94.31;101987.59;4966144;28;20204;-76
2022/10/17 03:26:05;;;;;;;3.07;2.20;;;;;;;13.17;94.16;101990.22;4950993;28;20609;-76
2022/10/17 03:28:32;;;;;;;3.70;2.30;;;;;;;13.13;93.50;101985.81;4955586;28;20225;-75
2022/10/17 03:30:57;;;;;;;3.90;2.70;;;;;;;13.07;93.21;101985.66;4953571;29;20612;-75
2022/10/17 03:33:23;;;;;;;4.70;2.70;;;;;;;13.08;93.78;101975.38;4938614;29;20279;-75
2022/10/17 03:35:48;;;;;;;2.73;2.53;;;;;;;13.06;93.35;101971.03;4970057;28;20284;-76
2022/10/17 03:38:14;;;;;;;5.47;2.80;;;;;;;13.05;93.84;101965.03;4943501;29;20264;-77
2022/10/17 03:40:40;;;;;;;4.33;2.67;;;;;;;13.04;93.50;101975.25;4950749;29;20599;-76
2022/10/17 03:43:05;;;;;;;5.40;3.40;;;;;;;13.00;93.85;101974.31;4953816;28;20193;-76
2022/10/17 03:45:31;;;;;;;3.57;2.47;;;;;;;12.97;93.56;101978.47;4968881;28;20670;-75
2022/10/17 03:48:00;;;;;;;2.90;2.60;;;;;;;12.93;93.87;101983.53;4953938;29;20201;-75
2022/10/17 03:50:25;;;;;;;3.60;2.77;;;;;;;12.92;93.88;101983.47;4964339;28;20232;-76
2022/10/17 03:52:50;;;;;;;4.70;2.63;;;;;;;12.91;93.53;101976.59;4939776;29;20997;-76
2022/10/17 03:55:16;;;;;;;3.60;2.50;;;;;;;12.89;93.75;101979.13;4965681;28;20822;-76
2022/10/17 03:57:42;;;;;;;2.90;2.60;;;;;;;12.88;93.52;101980.78;4946912;29;20194;-76
2022/10/17 04:00:09;;;;;;;5.23;2.70;;;;;;;12.85;93.40;101971.25;4953206;28;20626;-76
2022/10/17 04:02:39;;;;;;;3.80;2.80;;;;;;;12.85;93.44;101974.72;4948701;29;20195;-75
2022/10/17 04:05:06;;;;;;;2.73;2.40;;;;;;;12.88;93.85;101968.78;4953347;28;20185;-76
2022/10/17 04:07:32;;;;;;;3.83;3.00;;;;;;;12.86;93.33;101967.88;4953186;29;20209;-76
2022/10/17 04:09:57;;;;;;;3.37;2.43;;;;;;;12.85;93.52;101967.00;4954263;28;20220;-76
2022/10/17 04:12:23;;;;;;;2.97;2.63;;;;;;;12.83;94.56;101963.53;4952968;28;20240;-76
2022/10/17 04:14:48;;;;;;;3.33;2.87;;;;;;;12.82;94.48;101963.47;4953192;28;20727;-76
2022/10/17 04:17:15;;;;;;;3.10;2.77;;;;;;;12.81;94.22;101969.47;4953326;28;20177;-76
2022/10/17 04:19:40;;;;;;;5.20;3.03;;;;;;;12.83;94.31;101968.69;4953028;29;20618;-76
2022/10/17 04:22:07;;;;;;;2.80;2.60;;;;;;;12.77;94.19;101967.63;4952813;28;20231;-76
2022/10/17 04:24:35;;;;;;;6.07;3.00;;;;;;;12.74;94.57;101970.97;4953183;29;20195;-76
2022/10/17 04:27:07;;;;;;;3.07;2.63;;;;;;;12.73;93.83;101970.94;4951447;29;20213;-76
2022/10/17 04:29:36;;;;;;;4.63;2.97;;;;;;;12.71;94.53;101970.00;4952758;29;20217;-76
2022/10/17 04:32:22;;;;;;;5.57;2.90;;;;;;;12.69;94.02;101962.28;4966463;28;20196;-76
2022/10/17 04:34:53;;;;;;;3.97;2.63;;;;;;;12.65;94.07;101963.00;4944187;29;20208;-76
2022/10/17 04:37:20;;;;;;;4.90;2.97;;;;;;;12.63;94.03;101964.63;4967082;28;20618;-76
2022/10/17 04:39:48;;;;;;;3.43;2.73;;;;;;;12.62;94.38;101965.47;4952543;28;20236;-76
2022/10/17 04:42:14;;;;;;;3.63;2.97;;;;;;;12.62;94.07;101964.59;4951459;28;20228;-76
2022/10/17 04:44:39;;;;;;;3.77;2.57;;;;;;;12.61;94.42;101962.84;4951901;28;20185;-76
2022/10/17 04:47:06;;;;;;;6.63;3.00;;;;;;;12.55;94.29;101954.97;4952060;29;20260;-76
2022/10/17 04:49:32;;;;;;;3.33;2.93;;;;;;;12.46;94.76;101953.03;4953321;28;20196;-76
2022/10/17 04:52:05;;;;;;;3.13;2.90;;;;;;;12.44;94.59;101948.66;4965873;28;20216;-76
2022/10/17 04:54:46;;;;;;;4.50;2.80;;;;;;;12.39;94.08;101953.66;4949998;29;20836;-77
2022/10/17 04:57:12;;;;;;;3.60;2.60;;;;;;;12.34;94.53;101954.34;4952187;29;20212;-76
2022/10/17 04:59:39;;;;;;;5.50;3.00;;;;;;;12.34;94.28;101944.94;4964694;28;20205;-76
2022/10/17 05:02:22;;;;;;;4.67;2.53;;;;;;;12.23;94.16;101942.88;4951601;29;20192;-75
2022/10/17 05:04:48;;;;;;;3.83;2.47;;;;;;;12.17;93.85;101938.41;4951583;29;20276;-76
2022/10/17 05:07:14;;;;;;;3.33;3.03;;;;;;;12.15;94.35;101945.22;4934155;29;20277;-76
2022/10/17 05:09:46;;;;;;;2.93;2.63;;;;;;;12.09;94.56;101942.47;4945379;29;20209;-75
2022/10/17 05:12:11;;;;;;;4.07;2.77;;;;;;;12.13;94.71;101941.72;4926178;28;20303;-75
2022/10/17 05:14:40;;;;;;;4.17;3.17;;;;;;;12.14;94.67;101938.34;4968022;28;20192;-76
2022/10/17 05:17:05;;;;;;;3.60;2.97;;;;;;;12.09;94.91;101936.44;4953332;28;20190;-75
2022/10/17 05:19:31;;;;;;;3.40;3.10;;;;;;;12.06;95.00;101938.91;4948905;28;20196;-75
2022/10/17 05:21:56;;;;;;;8.23;3.53;;;;;;;12.00;95.36;101937.06;4947895;29;20201;-76
2022/10/17 05:24:22;;;;;;;3.73;3.07;;;;;;;12.00;95.54;101939.63;4967663;28;20352;-75
2022/10/17 05:26:50;;;;;;;3.33;2.80;;;;;;;11.99;95.55;101945.56;4950843;29;20200;-75
2022/10/17 05:29:16;;;;;;;3.20;2.90;;;;;;;11.93;95.55;101941.94;4946984;29;20629;-75
2022/10/17 05:31:46;;;;;;;3.97;2.97;;;;;;;11.92;95.47;101946.19;4949532;28;20604;-75
2022/10/17 05:34:12;;;;;;;4.23;3.10;;;;;;;11.94;95.90;101951.38;4948400;28;20279;-75
2022/10/17 05:36:37;;;;;;;4.40;3.03;;;;;;;11.97;95.75;101948.91;4946741;29;20233;-75
2022/10/17 05:39:03;;;;;;;4.27;3.33;;;;;;;11.96;95.75;101945.47;4951559;29;20658;-77
2022/10/17 05:41:31;;;;;;;3.63;2.90;;;;;;;11.91;96.00;101948.72;4950670;29;20556;-76
2022/10/17 05:43:56;;;;;;;3.93;3.27;;;;;;;11.88;96.02;101957.19;4950643;28;20190;-76
2022/10/17 05:46:35;;;;;;;4.67;3.20;;;;;;;11.86;95.87;101948.59;4945717;28;20303;-75
2022/10/17 05:49:01;;;;;;;5.43;2.53;;;;;;;11.84;96.11;101950.22;4951210;28;20280;-75
2022/10/17 05:51:26;;;;;;;3.83;2.80;;;;;;;11.89;95.90;101946.09;4944571;29;20217;-75
2022/10/17 05:53:54;;;;;;;3.30;3.00;;;;;;;11.87;96.17;101952.00;4948668;29;20562;-74
2022/10/17 05:56:23;;;;;;;4.57;3.30;;;;;;;11.84;96.16;101944.22;4965642;28;20244;-74
2022/10/17 05:58:49;;;;;;;3.23;2.93;;;;;;;11.82;96.34;101948.41;4961608;28;20639;-75
2022/10/17 06:01:25;;;;;;;4.23;3.33;;;;;;;11.80;97.08;101948.38;4947776;28;20209;-74
2022/10/17 06:03:52;;;;;;;3.70;3.27;;;;;;;11.78;96.67;101946.56;4966893;28;20193;-75
2022/10/17 06:06:18;;;;;;;3.60;3.30;;;;;;;11.78;96.69;101944.00;4960464;28;20216;-74
2022/10/17 06:08:45;;;;;;;5.93;3.37;;;;;;;11.81;96.69;101950.13;4935229;29;20204;-75
2022/10/17 06:11:14;;;;;;;4.57;3.37;;;;;;;11.84;96.88;101951.94;4951043;28;20244;-75
2022/10/17 06:13:40;;;;;;;5.63;3.20;;;;;;;11.85;96.13;101951.94;4949483;29;20272;-75
2022/10/17 06:16:11;;;;;;;4.23;3.17;;;;;;;11.86;96.71;101951.16;4950083;29;20193;-75
2022/10/17 06:18:37;;;;;;;5.00;3.20;;;;;;;11.88;96.43;101959.75;4950607;29;20193;-75
2022/10/17 06:21:04;;;;;;;4.30;2.90;;;;;;;11.89;96.35;101958.94;4939054;28;20225;-75
2022/10/17 06:23:30;;;;;;;5.80;3.20;;;;;;;11.93;96.67;101965.06;4946354;28;20193;-75
2022/10/17 06:26:06;;;;;;;5.50;3.30;;;;;;;11.98;96.85;101961.78;4945985;29;20205;-75
2022/10/17 06:28:33;;;;;;;5.03;3.03;;;;;;;12.02;96.77;101955.03;4950815;28;20197;-75
2022/10/17 06:31:02;;;;;;;3.37;3.07;;;;;;;12.09;96.72;101963.00;4960033;28;20213;-75
2022/10/17 06:33:28;;;;;;;3.97;3.10;;;;;;;12.12;96.96;101967.38;4950659;28;20181;-75
2022/10/17 06:35:55;;;;;;;5.57;4.00;;;;;;;12.17;97.33;101973.50;4965507;28;20208;-75
2022/10/17 06:38:22;;;;;;;3.93;3.20;;;;;;;12.17;97.32;101964.09;4950800;29;20199;-75
2022/10/17 06:40:50;;;;;;;4.77;3.60;;;;;;;12.26;97.71;101963.53;4948946;29;20205;-75
2022/10/17 06:43:15;;;;;;;4.37;3.17;;;;;;;12.30;97.59;101960.22;4950425;29;20236;-75
2022/10/17 06:46:20;;;;;;;6.27;3.47;;;;;;;12.35;97.89;101966.38;4949019;28;20228;-75
2022/10/17 06:48:55;;;;;;;5.30;3.43;;;;;;;12.48;98.48;101959.06;4963862;28;20722;-76
2022/10/17 06:51:28;;;;;;;4.20;3.80;;;;;;;12.59;97.65;101960.22;4935473;29;20205;-75
2022/10/17 06:53:58;;;;;;;3.90;3.17;;;;;;;12.70;97.29;101956.28;4942061;29;20325;-75
2022/10/17 06:56:43;;;;;;;5.30;3.80;;;;;;;12.83;96.99;101955.81;4951275;29;20292;-75
2022/10/17 06:59:27;;;;;;;3.60;3.30;;;;;;;12.91;97.33;101946.59;4950947;29;20235;-75
2022/10/17 07:02:02;;;;;;;3.80;3.50;;;;;;;13.03;96.35;101948.66;4941847;29;20192;-75
2022/10/17 07:04:28;;;;;;;3.77;3.47;;;;;;;13.20;96.18;101952.56;4936567;29;20559;-75
2022/10/17 07:06:54;;;;;;;6.17;3.50;;;;;;;13.39;95.25;101947.06;4950051;28;20197;-75
2022/10/17 07:09:23;;;;;;;3.83;3.23;;;;;;;13.58;95.08;101951.84;4931672;29;20208;-76
2022/10/17 07:11:49;;;;;;;4.10;3.63;;;;;;;13.72;94.35;101955.63;4950271;29;20193;-75
2022/10/17 07:14:16;;;;;;;4.00;3.70;;;;;;;13.85;93.65;101969.69;4949846;28;20314;-74
2022/10/17 07:16:42;;;;;;;4.30;3.33;;;;;;;13.92;93.33;101969.00;4946689;28;20187;-76
2022/10/17 07:19:19;;;;;;;5.83;3.63;;;;;;;14.15;92.23;101970.41;4923339;28;20306;-76
2022/10/17 07:21:46;;;;;;;4.10;3.47;;;;;;;14.42;91.79;101959.06;4946894;29;20295;-75
2022/10/17 07:24:11;;;;;;;5.63;3.67;;;;;;;14.39;90.55;101963.25;4949317;29;20225;-75
2022/10/17 07:26:40;;;;;;;4.23;3.50;;;;;;;14.29;91.51;101953.56;4948252;29;20293;-76
2022/10/17 07:29:06;;;;;;;5.87;3.50;;;;;;;14.30;91.81;101943.31;4950021;29;20325;-76
2022/10/17 07:31:54;;;;;;;4.10;3.70;;;;;;;14.50;91.01;101942.03;4953185;28;20201;-77
2022/10/17 07:34:19;;;;;;;4.83;3.73;;;;;;;14.46;91.46;101941.94;4949831;29;20193;-75
2022/10/17 07:36:45;;;;;;;6.40;3.80;;;;;;;14.54;91.47;101953.28;4949121;28;20189;-76
2022/10/17 07:39:12;;;;;;;5.73;3.90;;;;;;;14.52;91.51;101962.69;4946423;29;20193;-76
2022/10/17 07:41:39;;;;;;;5.50;3.80;;;;;;;14.52;91.29;101965.25;4965979;28;20209;-76
2022/10/17 07:44:05;;;;;;;4.73;3.80;;;;;;;14.71;91.48;101970.84;4945007;29;20200;-75
2022/10/17 07:46:35;;;;;;;4.97;3.90;;;;;;;15.19;90.15;101964.03;4965243;28;20235;-75
2022/10/17 07:49:00;;;;;;;5.27;3.73;;;;;;;15.44;88.70;101970.56;4943989;29;20230;-75
2022/10/17 07:51:27;;;;;;;3.27;2.97;;;;;;;15.73;87.51;101961.59;4949422;29;20213;-76
2022/10/17 07:53:52;;;;;;;3.70;3.00;;;;;;;15.94;87.19;101957.63;4950745;28;20197;-75
2022/10/17 07:56:18;;;;;;;5.30;3.63;;;;;;;16.08;86.50;101956.16;4950972;28;20213;-75
2022/10/17 07:58:43;;;;;;;5.20;3.40;;;;;;;16.20;86.22;101960.59;4949743;29;20284;-75
2022/10/17 08:01:13;;;;;;;4.30;3.30;;;;;;;16.37;85.86;101959.13;4945302;29;20221;-75
2022/10/17 08:03:40;;;;;;;4.30;3.50;;;;;;;16.38;85.19;101961.75;4950644;28;20197;-74
2022/10/17 08:06:05;;;;;;;5.07;3.33;;;;;;;17.00;83.53;101949.63;4945757;29;20251;-74
2022/10/17 08:08:31;;;;;;;4.13;3.13;;;;;;;17.31;81.51;101946.50;4948983;29;20197;-74
2022/10/17 08:11:02;;;;;;;4.40;3.30;;;;;;;17.69;80.77;101947.75;4949486;28;20259;-74
2022/10/17 08:13:28;;;;;;;3.27;2.97;;;;;;;18.23;78.36;101953.34;4952208;28;20208;-75
2022/10/17 08:15:57;;;;;;;4.87;3.13;;;;;;;17.89;80.12;101952.22;4952834;28;20181;-74
2022/10/17 08:18:22;;;;;;;3.83;3.40;;;;;;;17.67;80.88;101950.31;4940278;28;20225;-74
2022/10/17 08:20:48;;;;;;;7.40;3.30;;;;;;;17.62;81.21;101933.88;4953701;28;20225;-74
2022/10/17 08:23:13;;;;;;;3.53;3.00;;;;;;;17.77;81.29;101944.34;4953911;28;20220;-74
2022/10/17 08:25:38;;;;;;;6.10;3.50;;;;;;;17.90;81.22;101948.78;4953809;28;20195;-75
2022/10/17 08:28:05;;;;;;;3.50;3.20;;;;;;;18.04;80.43;101947.16;4945544;29;20633;-74
2022/10/17 08:30:30;;;;;;;5.00;3.43;;;;;;;18.33;79.44;101937.84;4951238;28;20205;-74
2022/10/17 08:32:56;;;;;;;4.10;3.10;;;;;;;18.19;80.17;101939.47;4952370;29;20272;-74
2022/10/17 08:35:21;;;;;;;5.27;3.10;;;;;;;18.23;80.64;101937.78;4950771;28;20189;-74
2022/10/17 08:37:47;;;;;;;3.20;2.90;;;;;;;18.35;80.30;101940.44;4950881;28;20547;-75
2022/10/17 08:40:24;;;;;;;3.57;2.97;;;;;;;18.43;80.05;101938.78;4948541;28;20213;-75
2022/10/17 08:43:16;;;;;;;5.40;3.33;;;;;;;18.39;80.19;101927.53;4953002;29;20284;-74
2022/10/17 08:45:59;;;;;;;4.67;2.43;;;;;;;18.96;78.93;101925.13;4949872;29;20205;-76
2022/10/17 08:48:27;;;;;;;3.97;2.50;;;;;;;19.06;77.92;101913.03;4935657;29;20217;-76
2022/10/17 08:51:05;;;;;;;4.60;2.73;;;;;;;19.63;76.25;101911.38;4948527;28;20215;-76
2022/10/17 08:53:55;;;;;;;2.80;2.50;;;;;;;20.51;73.54;101910.38;4952455;28;20272;-76
2022/10/17 08:56:36;;;;;;;3.72;2.63;;;;;;;21.60;68.30;101902.75;4953146;28;20665;-76
2022/10/17 08:59:04;;;;;;;2.53;2.33;;;;;;;21.39;69.14;101898.59;4949450;29;20296;-75
2022/10/17 09:01:44;;;;;;;3.33;2.28;;;;;;;21.49;68.45;101894.13;4953577;28;20291;-76
2022/10/17 09:04:51;;;;;;;3.63;2.25;;;;;;;24.13;60.73;101892.31;4946166;28;20181;-76
2022/10/17 09:07:38;;;;;;;2.60;2.28;;;;;;;25.45;54.92;101886.75;4947949;29;20258;-76
2022/10/17 09:10:31;;;;;;;2.85;2.15;;;;;;;23.72;59.42;101890.44;4948489;29;20629;-76
2022/10/17 09:13:37;;;;;;;2.60;2.25;;;;;;;23.26;62.34;101896.44;4947288;29;20247;-76
2022/10/17 09:16:02;;;;;;;3.92;2.38;;;;;;;25.40;55.20;101892.13;4947208;29;20232;-76
2022/10/17 09:18:31;;;;;;;2.45;2.25;;;;;;;27.16;50.47;101882.72;4940717;28;20264;-76
2022/10/17 09:21:31;;;;;;;2.90;2.10;;;;;;;26.55;51.34;101885.50;4953315;28;20228;-77
2022/10/17 09:24:02;;;;;;;3.72;2.08;;;;;;;28.18;47.09;101868.66;4951420;28;20988;-76
2022/10/17 09:26:28;;;;;;;4.13;1.88;;;;;;;28.79;45.21;101870.72;4951755;29;20201;-76
2022/10/17 09:28:58;;;;;;;2.78;1.90;;;;;;;27.27;49.56;101879.78;4951358;28;20197;-77
2022/10/17 09:31:29;;;;;;;6.10;2.30;;;;;;;25.64;53.86;101896.75;4947979;29;20744;-76
2022/10/17 09:33:59;;;;;;;2.63;2.30;;;;;;;24.73;57.26;101896.34;4950926;28;20232;-77
2022/10/17 09:36:34;;;;;;;4.80;2.08;;;;;;;24.46;58.47;101897.75;4953078;28;20210;-76
2022/10/17 09:39:22;;;;;;;3.67;2.38;;;;;;;24.00;60.08;101912.63;4967691;28;20188;-75
2022/10/17 09:41:56;;;;;;;3.72;2.35;;;;;;;25.49;56.08;101914.66;4950472;28;20225;-76
2022/10/17 09:44:34;;;;;;;2.67;2.35;;;;;;;27.27;51.38;101892.94;4935835;29;20201;-76
2022/10/17 09:47:26;;;;;;;5.10;2.50;;;;;;;28.64;47.40;101881.03;4952314;28;20221;-76
2022/10/17 09:49:51;;;;;;;2.30;1.85;;;;;;;29.22;46.49;101883.09;4950855;29;20205;-76
2022/10/17 09:52:18;;;;;;;2.42;1.88;;;;;;;26.89;51.33;101886.22;4952648;28;20192;-76
2022/10/17 09:54:51;;;;;;;2.90;2.25;;;;;;;26.24;53.05;101904.81;4952780;28;20188;-76
2022/10/17 09:57:18;;;;;;;5.63;2.50;;;;;;;25.15;57.42;101903.22;4945440;29;20173;-76
2022/10/17 10:00:03;;;;;;;3.47;2.30;;;;;;;24.99;57.78;101897.47;4950409;28;20276;-77
2022/10/17 10:02:39;;;;;;;3.65;2.22;;;;;;;25.03;57.85;101900.88;4947940;29;20693;-77
2022/10/17 10:05:15;;;;;;;3.70;2.15;;;;;;;24.73;59.24;101905.03;4950997;29;20666;-77
2022/10/17 10:07:43;;;;;;;3.88;2.47;;;;;;;25.76;56.35;101896.47;4937820;29;20690;-77
2022/10/17 10:10:26;;;;;;;2.67;2.30;;;;;;;25.33;56.63;101906.28;4952309;28;20217;-76
2022/10/17 10:13:04;;;;;;;5.25;2.42;;;;;;;25.25;56.64;101912.59;4947466;28;20197;-76
2022/10/17 10:15:40;;;;;;;4.20;2.60;;;;;;;23.80;61.45;101922.53;4948656;28;20189;-76
2022/10/17 10:18:23;;;;;;;3.75;2.55;;;;;;;23.03;64.60;101920.28;4927837;28;20200;-76
2022/10/17 10:21:07;;;;;;;5.32;2.63;;;;;;;23.38;64.06;101917.19;4951113;29;20702;-76
2022/10/17 10:23:38;;;;;;;5.35;2.60;;;;;;;23.14;64.97;101915.75;4952376;28;20231;-76
2022/10/17 10:26:20;;;;;;;3.07;2.77;;;;;;;22.78;65.79;101924.13;4951230;29;20205;-76
2022/10/17 10:28:59;;;;;;;4.50;2.50;;;;;;;22.75;66.46;101928.53;4952394;28;20271;-76
2022/10/17 10:31:28;;;;;;;3.40;2.30;;;;;;;22.82;65.57;101927.53;4945048;29;20268;-77
2022/10/17 10:33:54;;;;;;;3.57;2.53;;;;;;;22.93;65.90;101926.50;4952295;28;20189;-77
2022/10/17 10:36:21;;;;;;;3.50;2.60;;;;;;;23.04;65.41;101918.53;4950243;28;20531;-77
2022/10/17 10:38:56;;;;;;;3.13;2.70;;;;;;;24.33;61.94;101916.34;4952139;28;20205;-76
2022/10/17 10:41:22;;;;;;;4.97;2.88;;;;;;;25.40;58.13;101905.25;4950219;29;20695;-76
2022/10/17 10:43:50;;;;;;;5.47;2.50;;;;;;;25.36;57.30;101906.22;4951672;28;20333;-76
2022/10/17 10:46:24;;;;;;;5.25;2.70;;;;;;;23.80;62.35;101906.84;4951469;28;20240;-77
2022/10/17 10:48:57;;;;;;;7.88;2.78;;;;;;;23.46;63.71;101905.69;4950646;29;20567;-77
2022/10/17 10:51:40;;;;;;;4.83;2.40;;;;;;;23.24;64.47;101903.47;4950347;28;20228;-77
2022/10/17 10:54:31;;;;;;;3.37;2.80;;;;;;;22.85;65.97;101911.84;4944654;29;20205;-77
2022/10/17 10:57:00;;;;;;;5.93;2.73;;;;;;;22.51;68.02;101913.16;4947958;28;20201;-76
2022/10/17 10:59:41;;;;;;;3.83;2.60;;;;;;;22.35;68.95;101909.84;4951607;28;20193;-76
2022/10/17 11:02:44;;;;;;;4.20;2.60;;;;;;;22.20;69.36;101910.00;4947980;29;20189;-76
2022/10/17 11:05:21;;;;;;;3.67;2.57;;;;;;;22.10;70.30;101909.22;4944930;29;20232;-76
2022/10/17 11:08:02;;;;;;;4.23;2.70;;;;;;;22.22;70.33;101918.69;4947511;28;20276;-77
2022/10/17 11:10:34;;;;;;;4.93;2.83;;;;;;;22.16;71.33;101930.03;4951307;29;20209;-76
2022/10/17 11:13:09;;;;;;;3.40;2.97;;;;;;;21.92;72.33;101942.50;4966537;28;20189;-77
2022/10/17 11:15:42;;;;;;;4.97;3.20;;;;;;;21.77;72.28;101947.81;4944210;29;20208;-76
2022/10/17 11:18:16;;;;;;;5.37;3.10;;;;;;;21.84;72.77;101942.53;4917235;28;20641;-77
2022/10/17 11:20:57;;;;;;;5.93;3.60;;;;;;;21.90;73.07;101945.09;4944315;29;20720;-77
2022/10/17 11:23:26;;;;;;;3.10;2.77;;;;;;;21.90;72.58;101932.06;4963982;28;20200;-76
2022/10/17 11:25:55;;;;;;;6.13;2.87;;;;;;;22.15;72.02;101933.53;4950160;29;20239;-78
2022/10/17 11:28:23;;;;;;;5.47;3.03;;;;;;;22.32;70.99;101935.13;4948794;29;20209;-77
2022/10/17 11:31:02;;;;;;;5.53;3.37;;;;;;;22.23;71.78;101932.59;4951093;28;20271;-75
2022/10/17 11:33:45;;;;;;;7.53;3.03;;;;;;;22.02;72.27;101942.38;4949681;29;20212;-75
2022/10/17 11:36:14;;;;;;;4.03;3.23;;;;;;;21.90;72.89;101946.84;4950080;29;20200;-76
2022/10/17 11:38:46;;;;;;;4.40;3.27;;;;;;;21.75;73.21;101949.59;4949848;28;20598;-76
2022/10/17 11:41:20;;;;;;;8.83;2.90;;;;;;;21.78;74.36;101942.59;4933935;29;20562;-77
2022/10/17 11:43:55;;;;;;;6.20;2.80;;;;;;;21.75;74.22;101939.16;4950976;28;20193;-77
2022/10/17 11:46:25;;;;;;;4.53;3.00;;;;;;;21.71;73.64;101937.44;4951322;28;20216;-77